sensor_id;sensor_type;location;lat;lon;timestamp;temperature;humidity
65692;DHT22;52411;52.716;6.696;2023-07-31T00:00:08;15.70;99.90
65692;DHT22;52411;52.716;6.696;2023-07-31T00:02:34;15.70;99.90
65692;DHT22;52411;52.716;6.696;2023-07-31T00:05:01;15.70;99.90
65692;DHT22;52411;52.716;6.696;2023-07-31T00:07:26;15.70;99.90
65692;DHT22;52411;52.716;6.696;2023-07-31T00:09:52;15.60;99.90
65692;DHT22;52411;52.716;6.696;2023-07-31T00:12:19;15.60;99.90
65692;DHT22;52411;52.716;6.696;2023-07-31T00:14:45;15.60;99.90
65692;DHT22;52411;52.716;6.696;2023-07-31T00:17:11;15.60;99.90
65692;DHT22;52411;52.716;6.696;2023-07-31T00:19:37;15.60;99.90
65692;DHT22;52411;52.716;6.696;2023-07-31T00:22:02;15.60;99.90
65692;DHT22;52411;52.716;6.696;2023-07-31T00:24:28;15.50;99.90
65692;DHT22;52411;52.716;6.696;2023-07-31T00:26:54;15.50;99.90
65692;DHT22;52411;52.716;6.696;2023-07-31T00:29:19;15.50;99.90
65692;DHT22;52411;52.716;6.696;2023-07-31T00:31:45;15.50;99.90
65692;DHT22;52411;52.716;6.696;2023-07-31T00:34:11;15.50;99.90
65692;DHT22;52411;52.716;6.696;2023-07-31T00:36:36;15.50;99.90
65692;DHT22;52411;52.716;6.696;2023-07-31T00:39:02;15.50;99.90
65692;DHT22;52411;52.716;6.696;2023-07-31T00:41:27;15.50;99.90
65692;DHT22;52411;52.716;6.696;2023-07-31T00:43:53;15.50;99.90
65692;DHT22;52411;52.716;6.696;2023-07-31T00:46:19;15.40;99.90
65692;DHT22;52411;52.716;6.696;2023-07-31T00:48:45;15.40;99.90
65692;DHT22;52411;52.716;6.696;2023-07-31T00:51:11;15.40;99.90
65692;DHT22;52411;52.716;6.696;2023-07-31T00:53:37;15.40;99.90
65692;DHT22;52411;52.716;6.696;2023-07-31T00:56:03;15.40;99.90
65692;DHT22;52411;52.716;6.696;2023-07-31T00:58:29;15.40;99.90
65692;DHT22;52411;52.716;6.696;2023-07-31T01:00:55;15.40;99.90
65692;DHT22;52411;52.716;6.696;2023-07-31T01:03:21;15.30;99.90
65692;DHT22;52411;52.716;6.696;2023-07-31T01:11:30;15.30;99.90
65692;DHT22;52411;52.716;6.696;2023-07-31T01:13:56;15.30;99.90
65692;DHT22;52411;52.716;6.696;2023-07-31T01:16:22;15.30;99.90
65692;DHT22;52411;52.716;6.696;2023-07-31T01:18:48;15.30;99.90
65692;DHT22;52411;52.716;6.696;2023-07-31T01:24:39;15.30;99.90
65692;DHT22;52411;52.716;6.696;2023-07-31T01:27:15;15.30;99.90
65692;DHT22;52411;52.716;6.696;2023-07-31T01:29:49;15.30;99.90
65692;DHT22;52411;52.716;6.696;2023-07-31T01:32:22;15.30;99.90
65692;DHT22;52411;52.716;6.696;2023-07-31T01:34:48;15.30;99.90
65692;DHT22;52411;52.716;6.696;2023-07-31T01:37:14;15.30;99.90
65692;DHT22;52411;52.716;6.696;2023-07-31T01:39:40;15.30;99.90
65692;DHT22;52411;52.716;6.696;2023-07-31T01:42:06;15.30;99.90
65692;DHT22;52411;52.716;6.696;2023-07-31T01:44:33;15.30;99.90
65692;DHT22;52411;52.716;6.696;2023-07-31T01:46:58;15.30;99.90
65692;DHT22;52411;52.716;6.696;2023-07-31T01:49:25;15.40;99.90
65692;DHT22;52411;52.716;6.696;2023-07-31T01:51:51;15.40;99.90
65692;DHT22;52411;52.716;6.696;2023-07-31T01:54:16;15.40;99.90
65692;DHT22;52411;52.716;6.696;2023-07-31T01:56:42;15.40;99.90
65692;DHT22;52411;52.716;6.696;2023-07-31T01:59:08;15.40;99.90
65692;DHT22;52411;52.716;6.696;2023-07-31T02:01:33;15.40;99.90
65692;DHT22;52411;52.716;6.696;2023-07-31T02:03:59;15.40;99.90
65692;DHT22;52411;52.716;6.696;2023-07-31T02:06:24;15.40;99.90
65692;DHT22;52411;52.716;6.696;2023-07-31T02:08:50;15.40;99.90
65692;DHT22;52411;52.716;6.696;2023-07-31T02:11:16;15.40;99.90
65692;DHT22;52411;52.716;6.696;2023-07-31T02:13:41;15.40;99.90
65692;DHT22;52411;52.716;6.696;2023-07-31T02:16:07;15.40;99.90
65692;DHT22;52411;52.716;6.696;2023-07-31T02:18:33;15.40;99.90
65692;DHT22;52411;52.716;6.696;2023-07-31T02:20:58;15.50;99.90
65692;DHT22;52411;52.716;6.696;2023-07-31T02:23:24;15.50;99.90
65692;DHT22;52411;52.716;6.696;2023-07-31T02:25:49;15.50;99.90
65692;DHT22;52411;52.716;6.696;2023-07-31T02:28:15;15.50;99.90
65692;DHT22;52411;52.716;6.696;2023-07-31T02:30:44;15.50;99.90
65692;DHT22;52411;52.716;6.696;2023-07-31T02:33:09;15.60;99.90
65692;DHT22;52411;52.716;6.696;2023-07-31T02:35:35;15.60;99.90
65692;DHT22;52411;52.716;6.696;2023-07-31T02:38:01;15.60;99.90
65692;DHT22;52411;52.716;6.696;2023-07-31T02:40:26;15.60;99.90
65692;DHT22;52411;52.716;6.696;2023-07-31T02:42:52;15.60;99.90
65692;DHT22;52411;52.716;6.696;2023-07-31T02:45:17;15.60;99.90
65692;DHT22;52411;52.716;6.696;2023-07-31T02:47:43;15.60;99.90
65692;DHT22;52411;52.716;6.696;2023-07-31T02:50:09;15.70;99.90
65692;DHT22;52411;52.716;6.696;2023-07-31T02:52:35;15.70;99.90
65692;DHT22;52411;52.716;6.696;2023-07-31T02:55:00;15.70;99.90
65692;DHT22;52411;52.716;6.696;2023-07-31T02:57:26;15.70;99.90
65692;DHT22;52411;52.716;6.696;2023-07-31T02:59:52;15.70;99.90
65692;DHT22;52411;52.716;6.696;2023-07-31T03:02:17;15.80;99.90
65692;DHT22;52411;52.716;6.696;2023-07-31T03:04:43;15.70;99.90
65692;DHT22;52411;52.716;6.696;2023-07-31T03:07:08;15.80;99.90
65692;DHT22;52411;52.716;6.696;2023-07-31T03:09:34;15.80;99.90
65692;DHT22;52411;52.716;6.696;2023-07-31T03:12:00;15.80;99.90
65692;DHT22;52411;52.716;6.696;2023-07-31T03:14:25;15.80;99.90
65692;DHT22;52411;52.716;6.696;2023-07-31T03:16:54;15.80;99.90
65692;DHT22;52411;52.716;6.696;2023-07-31T03:19:20;15.80;99.90
65692;DHT22;52411;52.716;6.696;2023-07-31T03:21:45;15.80;99.90
65692;DHT22;52411;52.716;6.696;2023-07-31T03:24:11;15.80;99.90
65692;DHT22;52411;52.716;6.696;2023-07-31T03:26:38;15.80;99.90
65692;DHT22;52411;52.716;6.696;2023-07-31T03:29:07;15.80;99.90
65692;DHT22;52411;52.716;6.696;2023-07-31T03:31:32;15.90;99.90
65692;DHT22;52411;52.716;6.696;2023-07-31T03:33:58;15.90;99.90
65692;DHT22;52411;52.716;6.696;2023-07-31T03:36:23;15.90;99.90
65692;DHT22;52411;52.716;6.696;2023-07-31T03:38:49;15.80;99.90
65692;DHT22;52411;52.716;6.696;2023-07-31T03:41:15;15.90;99.90
65692;DHT22;52411;52.716;6.696;2023-07-31T03:43:40;15.90;99.90
65692;DHT22;52411;52.716;6.696;2023-07-31T03:46:06;15.80;99.90
65692;DHT22;52411;52.716;6.696;2023-07-31T03:48:31;15.90;99.90
65692;DHT22;52411;52.716;6.696;2023-07-31T03:50:57;15.90;99.90
65692;DHT22;52411;52.716;6.696;2023-07-31T03:53:23;15.90;99.90
65692;DHT22;52411;52.716;6.696;2023-07-31T03:55:48;15.90;99.90
65692;DHT22;52411;52.716;6.696;2023-07-31T03:58:14;15.90;99.90
65692;DHT22;52411;52.716;6.696;2023-07-31T04:00:40;16.00;99.90
65692;DHT22;52411;52.716;6.696;2023-07-31T04:03:06;16.00;99.90
65692;DHT22;52411;52.716;6.696;2023-07-31T04:05:32;16.00;99.90
65692;DHT22;52411;52.716;6.696;2023-07-31T04:07:58;16.00;99.90
65692;DHT22;52411;52.716;6.696;2023-07-31T04:10:24;16.00;99.90
65692;DHT22;52411;52.716;6.696;2023-07-31T04:12:49;16.10;99.90
65692;DHT22;52411;52.716;6.696;2023-07-31T04:15:15;16.10;99.90
65692;DHT22;52411;52.716;6.696;2023-07-31T04:17:41;16.10;99.90
65692;DHT22;52411;52.716;6.696;2023-07-31T04:20:07;16.10;99.90
65692;DHT22;52411;52.716;6.696;2023-07-31T04:22:33;16.10;99.90
65692;DHT22;52411;52.716;6.696;2023-07-31T04:24:58;16.10;99.90
65692;DHT22;52411;52.716;6.696;2023-07-31T04:27:24;16.20;99.90
65692;DHT22;52411;52.716;6.696;2023-07-31T04:29:50;16.10;99.90
65692;DHT22;52411;52.716;6.696;2023-07-31T04:32:16;16.20;99.90
65692;DHT22;52411;52.716;6.696;2023-07-31T04:34:42;16.20;99.90
65692;DHT22;52411;52.716;6.696;2023-07-31T04:37:08;16.20;99.90
65692;DHT22;52411;52.716;6.696;2023-07-31T04:39:33;16.20;99.90
65692;DHT22;52411;52.716;6.696;2023-07-31T04:41:59;16.20;99.90
65692;DHT22;52411;52.716;6.696;2023-07-31T04:44:24;16.20;99.90
65692;DHT22;52411;52.716;6.696;2023-07-31T04:46:50;16.30;99.90
65692;DHT22;52411;52.716;6.696;2023-07-31T04:49:16;16.30;99.90
65692;DHT22;52411;52.716;6.696;2023-07-31T04:51:41;16.30;99.90
65692;DHT22;52411;52.716;6.696;2023-07-31T04:54:07;16.40;99.90
65692;DHT22;52411;52.716;6.696;2023-07-31T04:56:33;16.50;99.90
65692;DHT22;52411;52.716;6.696;2023-07-31T04:58:58;16.50;99.90
65692;DHT22;52411;52.716;6.696;2023-07-31T05:01:24;16.50;99.90
65692;DHT22;52411;52.716;6.696;2023-07-31T05:03:49;16.50;99.90
65692;DHT22;52411;52.716;6.696;2023-07-31T05:06:15;16.50;99.90
65692;DHT22;52411;52.716;6.696;2023-07-31T05:08:41;16.60;99.90
65692;DHT22;52411;52.716;6.696;2023-07-31T05:11:06;16.60;99.90
65692;DHT22;52411;52.716;6.696;2023-07-31T05:13:32;16.60;99.90
65692;DHT22;52411;52.716;6.696;2023-07-31T05:15:57;16.60;99.90
65692;DHT22;52411;52.716;6.696;2023-07-31T05:18:23;16.60;99.90
65692;DHT22;52411;52.716;6.696;2023-07-31T05:20:49;16.60;99.90
65692;DHT22;52411;52.716;6.696;2023-07-31T05:23:14;16.60;99.90
65692;DHT22;52411;52.716;6.696;2023-07-31T05:25:40;16.70;99.90
65692;DHT22;52411;52.716;6.696;2023-07-31T05:28:05;16.70;99.90
65692;DHT22;52411;52.716;6.696;2023-07-31T05:30:31;16.70;99.90
65692;DHT22;52411;52.716;6.696;2023-07-31T05:32:57;16.80;99.90
65692;DHT22;52411;52.716;6.696;2023-07-31T05:35:22;16.70;99.90
65692;DHT22;52411;52.716;6.696;2023-07-31T05:37:48;16.80;99.90
65692;DHT22;52411;52.716;6.696;2023-07-31T05:40:14;16.80;99.90
65692;DHT22;52411;52.716;6.696;2023-07-31T05:42:40;16.80;99.90
65692;DHT22;52411;52.716;6.696;2023-07-31T05:45:09;16.80;99.90
65692;DHT22;52411;52.716;6.696;2023-07-31T05:47:35;16.80;99.90
65692;DHT22;52411;52.716;6.696;2023-07-31T05:50:00;16.80;99.90
65692;DHT22;52411;52.716;6.696;2023-07-31T05:52:26;16.80;99.90
65692;DHT22;52411;52.716;6.696;2023-07-31T05:54:54;16.80;99.90
65692;DHT22;52411;52.716;6.696;2023-07-31T05:57:20;16.90;99.90
65692;DHT22;52411;52.716;6.696;2023-07-31T05:59:45;16.80;99.90
65692;DHT22;52411;52.716;6.696;2023-07-31T06:02:11;16.80;99.90
65692;DHT22;52411;52.716;6.696;2023-07-31T06:04:37;16.80;99.90
65692;DHT22;52411;52.716;6.696;2023-07-31T06:07:03;16.80;99.90
65692;DHT22;52411;52.716;6.696;2023-07-31T06:09:29;16.80;99.90
65692;DHT22;52411;52.716;6.696;2023-07-31T06:11:54;16.80;99.90
65692;DHT22;52411;52.716;6.696;2023-07-31T06:14:20;16.80;99.90
65692;DHT22;52411;52.716;6.696;2023-07-31T06:16:45;16.90;99.90
65692;DHT22;52411;52.716;6.696;2023-07-31T06:19:11;16.80;99.90
65692;DHT22;52411;52.716;6.696;2023-07-31T06:21:37;16.90;99.90
65692;DHT22;52411;52.716;6.696;2023-07-31T06:24:05;16.90;99.90
65692;DHT22;52411;52.716;6.696;2023-07-31T06:26:31;16.90;99.90
65692;DHT22;52411;52.716;6.696;2023-07-31T06:28:56;16.90;99.90
65692;DHT22;52411;52.716;6.696;2023-07-31T06:31:22;16.90;99.90
65692;DHT22;52411;52.716;6.696;2023-07-31T06:33:51;16.90;99.90
65692;DHT22;52411;52.716;6.696;2023-07-31T06:36:17;17.00;99.90
65692;DHT22;52411;52.716;6.696;2023-07-31T06:38:42;17.00;99.90
65692;DHT22;52411;52.716;6.696;2023-07-31T06:41:08;17.00;99.90
65692;DHT22;52411;52.716;6.696;2023-07-31T06:43:34;16.90;99.90
65692;DHT22;52411;52.716;6.696;2023-07-31T06:46:07;16.90;99.90
65692;DHT22;52411;52.716;6.696;2023-07-31T06:48:33;16.80;99.90
65692;DHT22;52411;52.716;6.696;2023-07-31T06:51:00;16.80;99.90
65692;DHT22;52411;52.716;6.696;2023-07-31T06:53:26;16.70;99.90
65692;DHT22;52411;52.716;6.696;2023-07-31T06:55:51;16.70;99.90
65692;DHT22;52411;52.716;6.696;2023-07-31T06:58:17;16.80;99.90
65692;DHT22;52411;52.716;6.696;2023-07-31T07:00:43;16.80;99.90
65692;DHT22;52411;52.716;6.696;2023-07-31T07:03:08;16.80;99.90
65692;DHT22;52411;52.716;6.696;2023-07-31T07:05:34;16.70;99.90
65692;DHT22;52411;52.716;6.696;2023-07-31T07:08:00;16.60;99.90
65692;DHT22;52411;52.716;6.696;2023-07-31T07:10:25;16.60;99.90
65692;DHT22;52411;52.716;6.696;2023-07-31T07:12:51;16.60;99.90
65692;DHT22;52411;52.716;6.696;2023-07-31T07:15:17;16.70;99.90
65692;DHT22;52411;52.716;6.696;2023-07-31T07:17:42;16.70;99.90
65692;DHT22;52411;52.716;6.696;2023-07-31T07:20:08;16.70;99.90
65692;DHT22;52411;52.716;6.696;2023-07-31T07:22:34;16.80;99.90
65692;DHT22;52411;52.716;6.696;2023-07-31T07:25:00;16.80;99.90
65692;DHT22;52411;52.716;6.696;2023-07-31T07:27:25;16.90;99.90
65692;DHT22;52411;52.716;6.696;2023-07-31T07:29:51;17.00;99.90
65692;DHT22;52411;52.716;6.696;2023-07-31T07:32:20;17.10;99.90
65692;DHT22;52411;52.716;6.696;2023-07-31T07:34:47;17.10;99.90
65692;DHT22;52411;52.716;6.696;2023-07-31T07:37:13;17.00;99.90
65692;DHT22;52411;52.716;6.696;2023-07-31T07:39:38;16.90;99.90
65692;DHT22;52411;52.716;6.696;2023-07-31T07:42:04;17.00;99.90
65692;DHT22;52411;52.716;6.696;2023-07-31T07:44:30;16.90;99.90
65692;DHT22;52411;52.716;6.696;2023-07-31T07:46:55;16.90;99.90
65692;DHT22;52411;52.716;6.696;2023-07-31T07:49:21;17.00;99.90
65692;DHT22;52411;52.716;6.696;2023-07-31T07:51:48;17.10;99.90
65692;DHT22;52411;52.716;6.696;2023-07-31T07:54:14;17.00;99.90
65692;DHT22;52411;52.716;6.696;2023-07-31T07:56:40;17.00;99.90
65692;DHT22;52411;52.716;6.696;2023-07-31T07:59:05;17.00;99.90
65692;DHT22;52411;52.716;6.696;2023-07-31T08:01:31;17.00;99.90
65692;DHT22;52411;52.716;6.696;2023-07-31T08:03:58;17.10;99.90
65692;DHT22;52411;52.716;6.696;2023-07-31T08:06:23;17.10;99.90
65692;DHT22;52411;52.716;6.696;2023-07-31T08:08:49;17.10;99.90
65692;DHT22;52411;52.716;6.696;2023-07-31T08:11:15;17.10;99.90
65692;DHT22;52411;52.716;6.696;2023-07-31T08:13:41;17.10;99.90
65692;DHT22;52411;52.716;6.696;2023-07-31T08:16:06;17.10;99.90
65692;DHT22;52411;52.716;6.696;2023-07-31T08:18:32;17.10;99.90
65692;DHT22;52411;52.716;6.696;2023-07-31T08:20:58;17.20;99.90
65692;DHT22;52411;52.716;6.696;2023-07-31T08:23:24;17.30;99.90
65692;DHT22;52411;52.716;6.696;2023-07-31T08:25:50;17.30;99.90
65692;DHT22;52411;52.716;6.696;2023-07-31T08:28:16;17.40;99.90
65692;DHT22;52411;52.716;6.696;2023-07-31T08:30:42;17.50;99.90
65692;DHT22;52411;52.716;6.696;2023-07-31T08:33:08;17.50;99.90
65692;DHT22;52411;52.716;6.696;2023-07-31T08:35:33;17.50;99.90
65692;DHT22;52411;52.716;6.696;2023-07-31T08:37:59;17.60;99.90
65692;DHT22;52411;52.716;6.696;2023-07-31T08:40:25;17.70;99.90
65692;DHT22;52411;52.716;6.696;2023-07-31T08:42:53;17.80;99.90
65692;DHT22;52411;52.716;6.696;2023-07-31T08:45:19;17.90;99.90
65692;DHT22;52411;52.716;6.696;2023-07-31T08:47:48;17.90;99.90
65692;DHT22;52411;52.716;6.696;2023-07-31T08:50:15;17.90;99.90
65692;DHT22;52411;52.716;6.696;2023-07-31T08:52:41;18.00;99.90
65692;DHT22;52411;52.716;6.696;2023-07-31T08:55:07;18.10;99.90
65692;DHT22;52411;52.716;6.696;2023-07-31T08:57:36;18.30;99.90
65692;DHT22;52411;52.716;6.696;2023-07-31T09:00:04;18.30;99.90
65692;DHT22;52411;52.716;6.696;2023-07-31T09:02:54;18.30;99.90
65692;DHT22;52411;52.716;6.696;2023-07-31T09:05:21;18.20;99.90
65692;DHT22;52411;52.716;6.696;2023-07-31T09:07:49;18.20;99.90
65692;DHT22;52411;52.716;6.696;2023-07-31T09:10:15;18.20;99.90
65692;DHT22;52411;52.716;6.696;2023-07-31T09:12:41;18.20;99.90
65692;DHT22;52411;52.716;6.696;2023-07-31T09:15:08;18.20;99.90
65692;DHT22;52411;52.716;6.696;2023-07-31T09:17:35;18.10;99.90
65692;DHT22;52411;52.716;6.696;2023-07-31T09:20:19;18.10;99.90
65692;DHT22;52411;52.716;6.696;2023-07-31T09:22:45;18.20;99.90
65692;DHT22;52411;52.716;6.696;2023-07-31T09:25:22;18.20;99.90
65692;DHT22;52411;52.716;6.696;2023-07-31T09:27:58;18.20;99.90
65692;DHT22;52411;52.716;6.696;2023-07-31T09:30:24;18.20;99.90
65692;DHT22;52411;52.716;6.696;2023-07-31T09:32:51;18.10;99.90
65692;DHT22;52411;52.716;6.696;2023-07-31T09:35:43;18.10;99.90
65692;DHT22;52411;52.716;6.696;2023-07-31T09:38:13;18.20;99.90
65692;DHT22;52411;52.716;6.696;2023-07-31T09:40:40;18.20;99.90
65692;DHT22;52411;52.716;6.696;2023-07-31T09:43:09;18.30;99.90
65692;DHT22;52411;52.716;6.696;2023-07-31T09:45:37;18.30;99.90
65692;DHT22;52411;52.716;6.696;2023-07-31T09:48:07;18.30;99.90
65692;DHT22;52411;52.716;6.696;2023-07-31T09:50:37;18.30;99.90
65692;DHT22;52411;52.716;6.696;2023-07-31T09:53:03;18.30;99.90
65692;DHT22;52411;52.716;6.696;2023-07-31T09:55:29;18.40;99.90
65692;DHT22;52411;52.716;6.696;2023-07-31T09:57:57;18.40;99.90
65692;DHT22;52411;52.716;6.696;2023-07-31T10:00:24;18.50;99.90
65692;DHT22;52411;52.716;6.696;2023-07-31T10:02:53;18.50;99.90
65692;DHT22;52411;52.716;6.696;2023-07-31T10:05:19;18.60;99.90
65692;DHT22;52411;52.716;6.696;2023-07-31T10:07:53;18.70;99.90
65692;DHT22;52411;52.716;6.696;2023-07-31T10:10:21;18.80;99.90
65692;DHT22;52411;52.716;6.696;2023-07-31T10:12:48;18.80;99.90
65692;DHT22;52411;52.716;6.696;2023-07-31T10:15:15;18.90;99.90
65692;DHT22;52411;52.716;6.696;2023-07-31T10:17:41;19.00;99.90
65692;DHT22;52411;52.716;6.696;2023-07-31T10:20:08;19.00;99.90
65692;DHT22;52411;52.716;6.696;2023-07-31T10:22:34;19.00;99.90
65692;DHT22;52411;52.716;6.696;2023-07-31T10:25:01;19.10;99.90
65692;DHT22;52411;52.716;6.696;2023-07-31T10:27:27;19.20;99.90
65692;DHT22;52411;52.716;6.696;2023-07-31T10:29:55;19.20;99.90
65692;DHT22;52411;52.716;6.696;2023-07-31T10:32:22;19.20;99.90
65692;DHT22;52411;52.716;6.696;2023-07-31T10:34:51;19.20;99.90
65692;DHT22;52411;52.716;6.696;2023-07-31T10:37:27;19.20;99.90
65692;DHT22;52411;52.716;6.696;2023-07-31T10:40:03;19.20;99.90
65692;DHT22;52411;52.716;6.696;2023-07-31T10:42:30;19.30;99.90
65692;DHT22;52411;52.716;6.696;2023-07-31T10:44:58;19.60;99.90
65692;DHT22;52411;52.716;6.696;2023-07-31T10:47:25;19.80;99.90
65692;DHT22;52411;52.716;6.696;2023-07-31T10:49:50;19.80;99.90
65692;DHT22;52411;52.716;6.696;2023-07-31T10:52:20;19.80;99.90
65692;DHT22;52411;52.716;6.696;2023-07-31T10:54:49;19.90;99.90
65692;DHT22;52411;52.716;6.696;2023-07-31T10:57:20;19.80;99.90
65692;DHT22;52411;52.716;6.696;2023-07-31T10:59:46;19.70;99.90
65692;DHT22;52411;52.716;6.696;2023-07-31T11:02:25;19.70;99.90
65692;DHT22;52411;52.716;6.696;2023-07-31T11:05:06;19.70;99.90
65692;DHT22;52411;52.716;6.696;2023-07-31T11:07:50;19.80;99.90
65692;DHT22;52411;52.716;6.696;2023-07-31T11:10:17;19.70;99.90
65692;DHT22;52411;52.716;6.696;2023-07-31T11:12:45;19.70;99.90
65692;DHT22;52411;52.716;6.696;2023-07-31T11:15:11;19.70;99.90
65692;DHT22;52411;52.716;6.696;2023-07-31T11:17:40;19.70;99.90
65692;DHT22;52411;52.716;6.696;2023-07-31T11:20:06;19.80;99.90
65692;DHT22;52411;52.716;6.696;2023-07-31T11:22:34;19.90;99.90
65692;DHT22;52411;52.716;6.696;2023-07-31T11:25:01;19.80;99.90
65692;DHT22;52411;52.716;6.696;2023-07-31T11:27:28;19.80;99.90
65692;DHT22;52411;52.716;6.696;2023-07-31T11:30:00;19.90;99.90
65692;DHT22;52411;52.716;6.696;2023-07-31T11:32:27;19.90;99.90
65692;DHT22;52411;52.716;6.696;2023-07-31T11:34:55;19.80;99.90
65692;DHT22;52411;52.716;6.696;2023-07-31T11:37:22;19.70;99.90
65692;DHT22;52411;52.716;6.696;2023-07-31T11:40:00;19.70;99.90
65692;DHT22;52411;52.716;6.696;2023-07-31T11:42:26;19.60;99.90
65692;DHT22;52411;52.716;6.696;2023-07-31T11:44:52;19.50;99.90
65692;DHT22;52411;52.716;6.696;2023-07-31T11:47:17;19.50;99.90
65692;DHT22;52411;52.716;6.696;2023-07-31T11:49:43;19.50;99.90
65692;DHT22;52411;52.716;6.696;2023-07-31T11:52:10;19.40;99.90
65692;DHT22;52411;52.716;6.696;2023-07-31T11:54:36;19.30;99.90
65692;DHT22;52411;52.716;6.696;2023-07-31T11:57:02;19.20;99.90
65692;DHT22;52411;52.716;6.696;2023-07-31T11:59:28;19.20;99.90
65692;DHT22;52411;52.716;6.696;2023-07-31T12:01:54;19.20;99.90
65692;DHT22;52411;52.716;6.696;2023-07-31T12:04:20;19.20;99.90
65692;DHT22;52411;52.716;6.696;2023-07-31T12:06:47;19.40;99.90
65692;DHT22;52411;52.716;6.696;2023-07-31T12:09:14;19.50;99.90
65692;DHT22;52411;52.716;6.696;2023-07-31T12:11:47;19.60;99.90
65692;DHT22;52411;52.716;6.696;2023-07-31T12:14:26;19.60;99.90
65692;DHT22;52411;52.716;6.696;2023-07-31T12:17:03;19.70;99.90
65692;DHT22;52411;52.716;6.696;2023-07-31T12:19:29;19.80;99.90
65692;DHT22;52411;52.716;6.696;2023-07-31T12:21:59;19.80;99.90
65692;DHT22;52411;52.716;6.696;2023-07-31T12:24:28;19.60;99.90
65692;DHT22;52411;52.716;6.696;2023-07-31T12:26:54;19.50;99.90
65692;DHT22;52411;52.716;6.696;2023-07-31T12:29:20;19.40;99.90
65692;DHT22;52411;52.716;6.696;2023-07-31T12:31:46;19.40;99.90
65692;DHT22;52411;52.716;6.696;2023-07-31T12:34:20;19.30;99.90
65692;DHT22;52411;52.716;6.696;2023-07-31T12:36:48;19.20;99.90
65692;DHT22;52411;52.716;6.696;2023-07-31T12:39:14;19.10;99.90
65692;DHT22;52411;52.716;6.696;2023-07-31T12:41:40;19.00;99.90
65692;DHT22;52411;52.716;6.696;2023-07-31T12:44:06;18.90;99.90
65692;DHT22;52411;52.716;6.696;2023-07-31T12:46:31;18.70;99.90
65692;DHT22;52411;52.716;6.696;2023-07-31T12:48:57;18.60;99.90
65692;DHT22;52411;52.716;6.696;2023-07-31T12:51:23;18.70;99.90
65692;DHT22;52411;52.716;6.696;2023-07-31T12:53:48;18.80;99.90
65692;DHT22;52411;52.716;6.696;2023-07-31T12:56:14;18.90;99.90
65692;DHT22;52411;52.716;6.696;2023-07-31T12:58:39;19.00;99.90
65692;DHT22;52411;52.716;6.696;2023-07-31T13:01:05;19.00;99.90
65692;DHT22;52411;52.716;6.696;2023-07-31T13:03:31;19.00;99.90
65692;DHT22;52411;52.716;6.696;2023-07-31T13:05:57;19.20;99.90
65692;DHT22;52411;52.716;6.696;2023-07-31T13:08:23;19.30;99.90
65692;DHT22;52411;52.716;6.696;2023-07-31T13:10:48;19.30;99.90
65692;DHT22;52411;52.716;6.696;2023-07-31T13:13:14;19.20;99.90
65692;DHT22;52411;52.716;6.696;2023-07-31T13:15:39;19.30;99.90
65692;DHT22;52411;52.716;6.696;2023-07-31T13:18:05;19.40;99.90
65692;DHT22;52411;52.716;6.696;2023-07-31T13:20:31;19.50;99.90
65692;DHT22;52411;52.716;6.696;2023-07-31T13:22:56;19.70;99.90
65692;DHT22;52411;52.716;6.696;2023-07-31T13:25:22;19.70;99.90
65692;DHT22;52411;52.716;6.696;2023-07-31T13:27:48;19.60;99.90
65692;DHT22;52411;52.716;6.696;2023-07-31T13:30:13;19.40;99.90
65692;DHT22;52411;52.716;6.696;2023-07-31T13:32:39;19.30;99.90
65692;DHT22;52411;52.716;6.696;2023-07-31T13:35:08;19.20;99.90
65692;DHT22;52411;52.716;6.696;2023-07-31T13:37:34;19.10;99.90
65692;DHT22;52411;52.716;6.696;2023-07-31T13:40:00;19.00;99.90
65692;DHT22;52411;52.716;6.696;2023-07-31T13:42:26;19.10;99.90
65692;DHT22;52411;52.716;6.696;2023-07-31T13:44:53;19.00;99.90
65692;DHT22;52411;52.716;6.696;2023-07-31T13:47:21;19.10;99.90
65692;DHT22;52411;52.716;6.696;2023-07-31T13:49:47;19.10;99.90
65692;DHT22;52411;52.716;6.696;2023-07-31T13:52:12;19.10;99.90
65692;DHT22;52411;52.716;6.696;2023-07-31T13:54:38;19.20;99.90
65692;DHT22;52411;52.716;6.696;2023-07-31T13:57:04;19.20;99.90
65692;DHT22;52411;52.716;6.696;2023-07-31T13:59:29;19.30;99.90
65692;DHT22;52411;52.716;6.696;2023-07-31T14:01:55;19.40;99.90
65692;DHT22;52411;52.716;6.696;2023-07-31T14:04:20;19.60;99.90
65692;DHT22;52411;52.716;6.696;2023-07-31T14:06:46;19.80;99.90
65692;DHT22;52411;52.716;6.696;2023-07-31T14:09:13;19.90;99.90
65692;DHT22;52411;52.716;6.696;2023-07-31T14:11:39;20.00;99.90
65692;DHT22;52411;52.716;6.696;2023-07-31T14:14:05;20.00;99.90
65692;DHT22;52411;52.716;6.696;2023-07-31T14:16:31;20.00;99.90
65692;DHT22;52411;52.716;6.696;2023-07-31T14:18:56;20.10;99.90
65692;DHT22;52411;52.716;6.696;2023-07-31T14:21:25;20.10;99.90
65692;DHT22;52411;52.716;6.696;2023-07-31T14:23:50;20.20;99.90
65692;DHT22;52411;52.716;6.696;2023-07-31T14:26:16;20.20;99.90
65692;DHT22;52411;52.716;6.696;2023-07-31T14:28:42;20.40;99.90
65692;DHT22;52411;52.716;6.696;2023-07-31T14:31:08;20.60;99.90
65692;DHT22;52411;52.716;6.696;2023-07-31T14:33:33;20.80;99.90
65692;DHT22;52411;52.716;6.696;2023-07-31T14:35:59;20.90;99.90
65692;DHT22;52411;52.716;6.696;2023-07-31T14:38:24;21.00;99.90
65692;DHT22;52411;52.716;6.696;2023-07-31T14:40:51;20.90;99.90
65692;DHT22;52411;52.716;6.696;2023-07-31T14:43:16;20.80;99.90
65692;DHT22;52411;52.716;6.696;2023-07-31T14:45:42;20.70;99.90
65692;DHT22;52411;52.716;6.696;2023-07-31T14:48:08;20.70;99.90
65692;DHT22;52411;52.716;6.696;2023-07-31T14:50:34;20.60;99.90
65692;DHT22;52411;52.716;6.696;2023-07-31T14:52:59;20.70;99.90
65692;DHT22;52411;52.716;6.696;2023-07-31T14:55:25;20.70;99.90
65692;DHT22;52411;52.716;6.696;2023-07-31T14:57:51;20.70;99.90
65692;DHT22;52411;52.716;6.696;2023-07-31T15:00:16;20.70;99.90
65692;DHT22;52411;52.716;6.696;2023-07-31T15:02:42;20.60;99.90
65692;DHT22;52411;52.716;6.696;2023-07-31T15:05:08;20.50;99.90
65692;DHT22;52411;52.716;6.696;2023-07-31T15:07:34;20.40;99.90
65692;DHT22;52411;52.716;6.696;2023-07-31T15:10:01;20.30;99.90
65692;DHT22;52411;52.716;6.696;2023-07-31T15:12:27;20.20;99.90
65692;DHT22;52411;52.716;6.696;2023-07-31T15:14:53;20.10;99.90
65692;DHT22;52411;52.716;6.696;2023-07-31T15:17:19;20.00;99.90
65692;DHT22;52411;52.716;6.696;2023-07-31T15:19:45;20.00;99.90
65692;DHT22;52411;52.716;6.696;2023-07-31T15:22:10;19.90;99.90
65692;DHT22;52411;52.716;6.696;2023-07-31T15:24:36;19.90;99.90
65692;DHT22;52411;52.716;6.696;2023-07-31T15:27:02;19.80;99.90
65692;DHT22;52411;52.716;6.696;2023-07-31T15:29:29;19.80;99.90
65692;DHT22;52411;52.716;6.696;2023-07-31T15:31:55;19.80;99.90
65692;DHT22;52411;52.716;6.696;2023-07-31T15:34:20;19.80;99.90